sensor_id;sensor_type;location;lat;lon;timestamp;temperature;humidity
1381;DHT22;684;48.342;10.096;2024-01-11T00:02:11;-2.60;19.90
1381;DHT22;684;48.342;10.096;2024-01-11T00:04:38;-2.60;19.80
1381;DHT22;684;48.342;10.096;2024-01-11T00:07:07;-2.60;19.80
1381;DHT22;684;48.342;10.096;2024-01-11T00:09:33;-2.60;20.00
1381;DHT22;684;48.342;10.096;2024-01-11T00:12:00;-2.60;20.00
1381;DHT22;684;48.342;10.096;2024-01-11T00:14:28;-2.60;20.00
1381;DHT22;684;48.342;10.096;2024-01-11T00:16:54;-2.60;20.00
1381;DHT22;684;48.342;10.096;2024-01-11T00:19:21;-2.50;20.30
1381;DHT22;684;48.342;10.096;2024-01-11T00:21:48;-2.50;20.20
1381;DHT22;684;48.342;10.096;2024-01-11T00:24:16;-2.50;20.20
1381;DHT22;684;48.342;10.096;2024-01-11T00:26:43;-2.50;20.20
1381;DHT22;684;48.342;10.096;2024-01-11T00:29:10;-2.50;20.30
1381;DHT22;684;48.342;10.096;2024-01-11T00:31:37;-2.50;20.30
1381;DHT22;684;48.342;10.096;2024-01-11T00:34:04;-2.60;20.40
1381;DHT22;684;48.342;10.096;2024-01-11T00:36:31;-2.50;20.60
1381;DHT22;684;48.342;10.096;2024-01-11T00:38:58;-2.50;20.50
1381;DHT22;684;48.342;10.096;2024-01-11T00:41:26;-2.50;20.50
1381;DHT22;684;48.342;10.096;2024-01-11T00:43:53;-2.50;20.40
1381;DHT22;684;48.342;10.096;2024-01-11T00:46:20;-2.60;20.40
1381;DHT22;684;48.342;10.096;2024-01-11T00:48:47;-2.60;20.50
1381;DHT22;684;48.342;10.096;2024-01-11T00:51:15;-2.70;20.60
1381;DHT22;684;48.342;10.096;2024-01-11T00:53:42;-2.70;21.40
1381;DHT22;684;48.342;10.096;2024-01-11T00:56:15;-2.70;20.80
1381;DHT22;684;48.342;10.096;2024-01-11T00:58:44;-2.70;20.80
1381;DHT22;684;48.342;10.096;2024-01-11T01:01:10;-2.60;20.60
1381;DHT22;684;48.342;10.096;2024-01-11T01:03:37;-2.60;20.50
1381;DHT22;684;48.342;10.096;2024-01-11T01:06:04;-2.70;20.40
1381;DHT22;684;48.342;10.096;2024-01-11T01:08:31;-2.60;20.30
1381;DHT22;684;48.342;10.096;2024-01-11T01:10:58;-2.60;20.20
1381;DHT22;684;48.342;10.096;2024-01-11T01:13:25;-2.60;20.10
1381;DHT22;684;48.342;10.096;2024-01-11T01:15:53;-2.60;20.00
1381;DHT22;684;48.342;10.096;2024-01-11T01:18:20;-2.60;19.80
1381;DHT22;684;48.342;10.096;2024-01-11T01:20:47;-2.60;19.70
1381;DHT22;684;48.342;10.096;2024-01-11T01:23:14;-2.60;19.80
1381;DHT22;684;48.342;10.096;2024-01-11T01:25:41;-2.70;19.80
1381;DHT22;684;48.342;10.096;2024-01-11T01:28:08;-2.70;19.80
1381;DHT22;684;48.342;10.096;2024-01-11T01:30:35;-2.80;19.80
1381;DHT22;684;48.342;10.096;2024-01-11T01:33:04;-2.80;20.00
1381;DHT22;684;48.342;10.096;2024-01-11T01:35:31;-2.90;20.10
1381;DHT22;684;48.342;10.096;2024-01-11T01:37:58;-2.90;20.10
1381;DHT22;684;48.342;10.096;2024-01-11T01:40:25;-2.90;20.20
1381;DHT22;684;48.342;10.096;2024-01-11T01:42:58;-2.90;20.20
1381;DHT22;684;48.342;10.096;2024-01-11T01:45:25;-2.80;20.10
1381;DHT22;684;48.342;10.096;2024-01-11T01:47:52;-2.80;20.00
1381;DHT22;684;48.342;10.096;2024-01-11T01:50:21;-2.80;20.00
1381;DHT22;684;48.342;10.096;2024-01-11T01:52:49;-2.80;20.00
1381;DHT22;684;48.342;10.096;2024-01-11T01:55:17;-2.90;20.00
1381;DHT22;684;48.342;10.096;2024-01-11T01:57:46;-3.00;20.30
1381;DHT22;684;48.342;10.096;2024-01-11T02:00:14;-3.10;20.70
1381;DHT22;684;48.342;10.096;2024-01-11T02:02:42;-3.10;21.20
1381;DHT22;684;48.342;10.096;2024-01-11T02:05:11;-3.20;21.40
1381;DHT22;684;48.342;10.096;2024-01-11T02:07:40;-3.20;21.50
1381;DHT22;684;48.342;10.096;2024-01-11T02:10:08;-3.20;21.60
1381;DHT22;684;48.342;10.096;2024-01-11T02:12:35;-3.10;21.70
1381;DHT22;684;48.342;10.096;2024-01-11T02:15:02;-3.10;21.80
1381;DHT22;684;48.342;10.096;2024-01-11T02:17:30;-3.10;21.70
1381;DHT22;684;48.342;10.096;2024-01-11T02:19:57;-3.10;22.00
1381;DHT22;684;48.342;10.096;2024-01-11T02:22:26;-3.10;22.20
1381;DHT22;684;48.342;10.096;2024-01-11T02:24:56;-3.20;22.40
1381;DHT22;684;48.342;10.096;2024-01-11T02:27:24;-3.30;23.00
1381;DHT22;684;48.342;10.096;2024-01-11T02:29:51;-3.30;23.20
1381;DHT22;684;48.342;10.096;2024-01-11T02:32:17;-3.30;23.30
1381;DHT22;684;48.342;10.096;2024-01-11T02:34:44;-3.30;23.40
1381;DHT22;684;48.342;10.096;2024-01-11T02:37:11;-3.20;23.30
1381;DHT22;684;48.342;10.096;2024-01-11T02:39:39;-3.10;23.30
1381;DHT22;684;48.342;10.096;2024-01-11T02:42:07;-3.10;23.30
1381;DHT22;684;48.342;10.096;2024-01-11T02:44:34;-3.00;23.10
1381;DHT22;684;48.342;10.096;2024-01-11T02:47:02;-2.90;23.10
1381;DHT22;684;48.342;10.096;2024-01-11T02:49:29;-2.90;23.20
1381;DHT22;684;48.342;10.096;2024-01-11T02:51:56;-2.90;23.00
1381;DHT22;684;48.342;10.096;2024-01-11T02:54:23;-2.80;23.00
1381;DHT22;684;48.342;10.096;2024-01-11T02:56:50;-2.80;22.70
1381;DHT22;684;48.342;10.096;2024-01-11T02:59:18;-2.70;22.80
1381;DHT22;684;48.342;10.096;2024-01-11T03:01:45;-2.70;22.60
1381;DHT22;684;48.342;10.096;2024-01-11T03:04:11;-2.60;22.30
1381;DHT22;684;48.342;10.096;2024-01-11T03:06:39;-2.60;22.30
1381;DHT22;684;48.342;10.096;2024-01-11T03:09:06;-2.60;22.30
1381;DHT22;684;48.342;10.096;2024-01-11T03:11:33;-2.60;22.40
1381;DHT22;684;48.342;10.096;2024-01-11T03:14:00;-2.60;22.20
1381;DHT22;684;48.342;10.096;2024-01-11T03:16:29;-2.50;22.20
1381;DHT22;684;48.342;10.096;2024-01-11T03:18:56;-2.50;22.40
1381;DHT22;684;48.342;10.096;2024-01-11T03:21:23;-2.50;22.40
1381;DHT22;684;48.342;10.096;2024-01-11T03:23:50;-2.50;22.20
1381;DHT22;684;48.342;10.096;2024-01-11T03:26:17;-2.50;22.00
1381;DHT22;684;48.342;10.096;2024-01-11T03:28:44;-2.40;22.00
1381;DHT22;684;48.342;10.096;2024-01-11T03:31:11;-2.40;22.10
1381;DHT22;684;48.342;10.096;2024-01-11T03:33:39;-2.40;22.00
1381;DHT22;684;48.342;10.096;2024-01-11T03:36:07;-2.40;22.00
1381;DHT22;684;48.342;10.096;2024-01-11T03:38:34;-2.40;22.10
1381;DHT22;684;48.342;10.096;2024-01-11T03:41:01;-2.40;22.20
1381;DHT22;684;48.342;10.096;2024-01-11T03:43:28;-2.40;22.10
1381;DHT22;684;48.342;10.096;2024-01-11T03:45:55;-2.40;22.20
1381;DHT22;684;48.342;10.096;2024-01-11T03:48:22;-2.30;22.20
1381;DHT22;684;48.342;10.096;2024-01-11T03:50:49;-2.30;22.30
1381;DHT22;684;48.342;10.096;2024-01-11T03:53:16;-2.30;22.20
1381;DHT22;684;48.342;10.096;2024-01-11T03:55:43;-2.30;22.20
1381;DHT22;684;48.342;10.096;2024-01-11T03:58:10;-2.30;22.00
1381;DHT22;684;48.342;10.096;2024-01-11T04:00:37;-2.30;22.00
1381;DHT22;684;48.342;10.096;2024-01-11T04:03:04;-2.20;22.00
1381;DHT22;684;48.342;10.096;2024-01-11T04:05:32;-2.20;21.80
1381;DHT22;684;48.342;10.096;2024-01-11T04:08:03;-2.20;22.00
1381;DHT22;684;48.342;10.096;2024-01-11T04:10:30;-2.20;21.90
1381;DHT22;684;48.342;10.096;2024-01-11T04:12:57;-2.20;21.90
1381;DHT22;684;48.342;10.096;2024-01-11T04:15:24;-2.20;21.80
1381;DHT22;684;48.342;10.096;2024-01-11T04:17:51;-2.20;21.70
1381;DHT22;684;48.342;10.096;2024-01-11T04:20:18;-2.20;21.70
1381;DHT22;684;48.342;10.096;2024-01-11T04:22:45;-2.20;21.60
1381;DHT22;684;48.342;10.096;2024-01-11T04:25:13;-2.20;21.60
1381;DHT22;684;48.342;10.096;2024-01-11T04:27:40;-2.10;21.50
1381;DHT22;684;48.342;10.096;2024-01-11T04:30:07;-2.10;21.10
1381;DHT22;684;48.342;10.096;2024-01-11T04:32:34;-2.10;21.40
1381;DHT22;684;48.342;10.096;2024-01-11T04:35:01;-2.10;21.20
1381;DHT22;684;48.342;10.096;2024-01-11T04:37:28;-2.10;21.20
1381;DHT22;684;48.342;10.096;2024-01-11T04:39:55;-2.10;21.20
1381;DHT22;684;48.342;10.096;2024-01-11T04:42:26;-2.10;21.10
1381;DHT22;684;48.342;10.096;2024-01-11T04:44:53;-2.10;21.30
1381;DHT22;684;48.342;10.096;2024-01-11T04:47:20;-2.10;21.20
1381;DHT22;684;48.342;10.096;2024-01-11T04:49:47;-2.10;21.20
1381;DHT22;684;48.342;10.096;2024-01-11T04:52:14;-2.10;21.30
1381;DHT22;684;48.342;10.096;2024-01-11T04:54:41;-2.10;21.10
1381;DHT22;684;48.342;10.096;2024-01-11T04:57:08;-2.10;21.20
1381;DHT22;684;48.342;10.096;2024-01-11T04:59:36;-2.10;21.10
1381;DHT22;684;48.342;10.096;2024-01-11T05:02:03;-2.10;21.20
1381;DHT22;684;48.342;10.096;2024-01-11T05:04:30;-2.10;21.00
1381;DHT22;684;48.342;10.096;2024-01-11T05:06:57;-2.00;20.90
1381;DHT22;684;48.342;10.096;2024-01-11T05:09:23;-2.00;20.90
1381;DHT22;684;48.342;10.096;2024-01-11T05:11:50;-2.00;21.50
1381;DHT22;684;48.342;10.096;2024-01-11T05:14:17;-2.00;20.80
1381;DHT22;684;48.342;10.096;2024-01-11T05:16:45;-2.10;20.80
1381;DHT22;684;48.342;10.096;2024-01-11T05:19:12;-2.10;20.90
1381;DHT22;684;48.342;10.096;2024-01-11T05:21:39;-2.10;20.90
1381;DHT22;684;48.342;10.096;2024-01-11T05:24:06;-2.10;21.00
1381;DHT22;684;48.342;10.096;2024-01-11T05:26:33;-2.10;20.90
1381;DHT22;684;48.342;10.096;2024-01-11T05:29:00;-2.10;20.90
1381;DHT22;684;48.342;10.096;2024-01-11T05:31:29;-2.10;20.90
1381;DHT22;684;48.342;10.096;2024-01-11T05:33:57;-2.10;20.80
1381;DHT22;684;48.342;10.096;2024-01-11T05:36:24;-2.10;20.70
1381;DHT22;684;48.342;10.096;2024-01-11T05:38:51;-2.10;20.80
1381;DHT22;684;48.342;10.096;2024-01-11T05:41:18;-2.10;20.90
1381;DHT22;684;48.342;10.096;2024-01-11T05:43:45;-2.10;20.70
1381;DHT22;684;48.342;10.096;2024-01-11T05:46:12;-2.10;20.70
1381;DHT22;684;48.342;10.096;2024-01-11T05:48:38;-2.10;20.60
1381;DHT22;684;48.342;10.096;2024-01-11T05:51:08;-2.10;20.60
1381;DHT22;684;48.342;10.096;2024-01-11T05:53:34;-2.10;20.60
1381;DHT22;684;48.342;10.096;2024-01-11T05:56:01;-2.10;21.30
1381;DHT22;684;48.342;10.096;2024-01-11T05:58:28;-2.10;20.70
1381;DHT22;684;48.342;10.096;2024-01-11T06:00:55;-2.10;20.80
1381;DHT22;684;48.342;10.096;2024-01-11T06:03:22;-2.20;20.70
1381;DHT22;684;48.342;10.096;2024-01-11T06:05:49;-2.20;20.60
1381;DHT22;684;48.342;10.096;2024-01-11T06:08:17;-2.20;20.70
1381;DHT22;684;48.342;10.096;2024-01-11T06:10:44;-2.20;21.30
1381;DHT22;684;48.342;10.096;2024-01-11T06:13:11;-2.30;20.90
1381;DHT22;684;48.342;10.096;2024-01-11T06:15:38;-2.40;21.00
1381;DHT22;684;48.342;10.096;2024-01-11T06:18:05;-2.40;21.10
1381;DHT22;684;48.342;10.096;2024-01-11T06:20:32;-2.40;21.30
1381;DHT22;684;48.342;10.096;2024-01-11T06:22:58;-2.50;21.40
1381;DHT22;684;48.342;10.096;2024-01-11T06:25:27;-2.50;21.70
1381;DHT22;684;48.342;10.096;2024-01-11T06:27:53;-2.60;21.90
1381;DHT22;684;48.342;10.096;2024-01-11T06:30:21;-2.60;22.10
1381;DHT22;684;48.342;10.096;2024-01-11T06:32:48;-2.60;22.00
1381;DHT22;684;48.342;10.096;2024-01-11T06:35:14;-2.50;22.20
1381;DHT22;684;48.342;10.096;2024-01-11T06:37:41;-2.50;22.20
1381;DHT22;684;48.342;10.096;2024-01-11T06:40:09;-2.50;22.20
1381;DHT22;684;48.342;10.096;2024-01-11T06:42:37;-2.50;22.10
1381;DHT22;684;48.342;10.096;2024-01-11T06:45:04;-2.40;22.20
1381;DHT22;684;48.342;10.096;2024-01-11T06:47:32;-2.40;22.00
1381;DHT22;684;48.342;10.096;2024-01-11T06:49:58;-2.30;21.90
1381;DHT22;684;48.342;10.096;2024-01-11T06:52:26;-2.30;21.90
1381;DHT22;684;48.342;10.096;2024-01-11T06:54:52;-2.30;21.80
1381;DHT22;684;48.342;10.096;2024-01-11T06:57:19;-2.20;21.70
1381;DHT22;684;48.342;10.096;2024-01-11T06:59:47;-2.20;21.70
1381;DHT22;684;48.342;10.096;2024-01-11T07:02:16;-2.20;21.60
1381;DHT22;684;48.342;10.096;2024-01-11T07:04:44;-2.20;21.50
1381;DHT22;684;48.342;10.096;2024-01-11T07:07:11;-2.20;21.40
1381;DHT22;684;48.342;10.096;2024-01-11T07:09:38;-2.20;21.40
1381;DHT22;684;48.342;10.096;2024-01-11T07:12:06;-2.10;20.90
1381;DHT22;684;48.342;10.096;2024-01-11T07:14:33;-2.10;21.50
1381;DHT22;684;48.342;10.096;2024-01-11T07:17:01;-2.10;20.70
1381;DHT22;684;48.342;10.096;2024-01-11T07:19:29;-2.10;20.70
1381;DHT22;684;48.342;10.096;2024-01-11T07:21:56;-2.10;20.80
1381;DHT22;684;48.342;10.096;2024-01-11T07:24:23;-2.20;20.60
1381;DHT22;684;48.342;10.096;2024-01-11T07:26:50;-2.10;20.40
1381;DHT22;684;48.342;10.096;2024-01-11T07:29:17;-2.10;20.20
1381;DHT22;684;48.342;10.096;2024-01-11T07:31:44;-2.10;20.00
1381;DHT22;684;48.342;10.096;2024-01-11T07:34:12;-2.10;20.10
1381;DHT22;684;48.342;10.096;2024-01-11T07:36:39;-2.10;20.00
1381;DHT22;684;48.342;10.096;2024-01-11T07:39:06;-2.10;20.00
1381;DHT22;684;48.342;10.096;2024-01-11T07:41:33;-2.10;19.90
1381;DHT22;684;48.342;10.096;2024-01-11T07:43:59;-2.10;19.90
1381;DHT22;684;48.342;10.096;2024-01-11T07:46:26;-2.10;19.80
1381;DHT22;684;48.342;10.096;2024-01-11T07:48:53;-2.10;19.70
1381;DHT22;684;48.342;10.096;2024-01-11T07:51:21;-2.10;19.70
1381;DHT22;684;48.342;10.096;2024-01-11T07:53:48;-2.10;19.60
1381;DHT22;684;48.342;10.096;2024-01-11T07:56:15;-2.10;19.70
1381;DHT22;684;48.342;10.096;2024-01-11T07:58:42;-2.10;19.70
1381;DHT22;684;48.342;10.096;2024-01-11T08:01:09;-2.10;19.70
1381;DHT22;684;48.342;10.096;2024-01-11T08:03:38;-2.10;19.60
1381;DHT22;684;48.342;10.096;2024-01-11T08:06:07;-2.10;19.60
1381;DHT22;684;48.342;10.096;2024-01-11T08:08:36;-2.10;19.60
1381;DHT22;684;48.342;10.096;2024-01-11T08:11:04;-2.10;19.60
1381;DHT22;684;48.342;10.096;2024-01-11T08:13:33;-2.10;19.50
1381;DHT22;684;48.342;10.096;2024-01-11T08:16:00;-2.00;19.50
1381;DHT22;684;48.342;10.096;2024-01-11T08:18:29;-2.00;19.50
1381;DHT22;684;48.342;10.096;2024-01-11T08:20:56;-2.00;19.30
1381;DHT22;684;48.342;10.096;2024-01-11T08:23:22;-2.00;19.20
1381;DHT22;684;48.342;10.096;2024-01-11T08:25:52;-2.00;19.30
1381;DHT22;684;48.342;10.096;2024-01-11T08:28:20;-2.00;19.30
1381;DHT22;684;48.342;10.096;2024-01-11T08:30:47;-2.00;19.70
1381;DHT22;684;48.342;10.096;2024-01-11T08:33:13;-2.00;19.40
1381;DHT22;684;48.342;10.096;2024-01-11T08:35:40;-2.00;19.50
1381;DHT22;684;48.342;10.096;2024-01-11T08:38:07;-1.90;20.20
1381;DHT22;684;48.342;10.096;2024-01-11T08:40:35;-1.90;19.70
1381;DHT22;684;48.342;10.096;2024-01-11T08:43:04;-1.90;19.70
1381;DHT22;684;48.342;10.096;2024-01-11T08:45:32;-1.80;19.60
1381;DHT22;684;48.342;10.096;2024-01-11T08:47:58;-1.80;19.50
1381;DHT22;684;48.342;10.096;2024-01-11T08:50:26;-1.80;19.30
1381;DHT22;684;48.342;10.096;2024-01-11T08:52:53;-1.80;19.30
1381;DHT22;684;48.342;10.096;2024-01-11T08:55:20;-1.80;19.30
1381;DHT22;684;48.342;10.096;2024-01-11T08:57:47;-1.80;19.30
1381;DHT22;684;48.342;10.096;2024-01-11T09:00:16;-1.80;19.30
1381;DHT22;684;48.342;10.096;2024-01-11T09:02:43;-1.70;19.30
1381;DHT22;684;48.342;10.096;2024-01-11T09:05:11;-1.60;19.10
1381;DHT22;684;48.342;10.096;2024-01-11T09:07:38;-1.60;18.90
1381;DHT22;684;48.342;10.096;2024-01-11T09:10:05;-1.60;18.90
1381;DHT22;684;48.342;10.096;2024-01-11T09:12:34;-1.70;18.90
1381;DHT22;684;48.342;10.096;2024-01-11T09:15:00;-1.70;18.90
1381;DHT22;684;48.342;10.096;2024-01-11T09:17:29;-1.70;19.00
1381;DHT22;684;48.342;10.096;2024-01-11T09:19:56;-1.70;18.90
1381;DHT22;684;48.342;10.096;2024-01-11T09:22:23;-1.70;18.90
1381;DHT22;684;48.342;10.096;2024-01-11T09:24:49;-1.80;19.00
1381;DHT22;684;48.342;10.096;2024-01-11T09:27:16;-1.70;19.10
1381;DHT22;684;48.342;10.096;2024-01-11T09:29:43;-1.60;19.00
1381;DHT22;684;48.342;10.096;2024-01-11T09:32:10;-1.60;18.90
1381;DHT22;684;48.342;10.096;2024-01-11T09:34:38;-1.60;18.90
1381;DHT22;684;48.342;10.096;2024-01-11T09:37:05;-1.50;18.90
1381;DHT22;684;48.342;10.096;2024-01-11T09:39:32;-1.50;18.90
1381;DHT22;684;48.342;10.096;2024-01-11T09:42:05;-1.50;18.70
1381;DHT22;684;48.342;10.096;2024-01-11T09:44:33;-1.50;18.70
1381;DHT22;684;48.342;10.096;2024-01-11T09:47:00;-1.50;18.70
1381;DHT22;684;48.342;10.096;2024-01-11T09:49:30;-1.50;18.60
1381;DHT22;684;48.342;10.096;2024-01-11T09:52:00;-1.50;18.70
1381;DHT22;684;48.342;10.096;2024-01-11T09:54:27;-1.50;18.70
1381;DHT22;684;48.342;10.096;2024-01-11T09:56:54;-1.40;18.60
1381;DHT22;684;48.342;10.096;2024-01-11T09:59:24;-1.50;18.50
1381;DHT22;684;48.342;10.096;2024-01-11T10:01:52;-1.50;18.40
1381;DHT22;684;48.342;10.096;2024-01-11T10:04:19;-1.50;18.50
1381;DHT22;684;48.342;10.096;2024-01-11T10:06:46;-1.40;18.60
1381;DHT22;684;48.342;10.096;2024-01-11T10:09:15;-1.40;18.40
1381;DHT22;684;48.342;10.096;2024-01-11T10:11:42;-1.50;18.30
1381;DHT22;684;48.342;10.096;2024-01-11T10:14:12;-1.50;18.20
1381;DHT22;684;48.342;10.096;2024-01-11T10:16:39;-1.50;18.20
1381;DHT22;684;48.342;10.096;2024-01-11T10:19:07;-1.50;18.40
1381;DHT22;684;48.342;10.096;2024-01-11T10:21:38;-1.50;18.40
1381;DHT22;684;48.342;10.096;2024-01-11T10:24:05;-1.60;18.60
1381;DHT22;684;48.342;10.096;2024-01-11T10:26:33;-1.50;18.70
1381;DHT22;684;48.342;10.096;2024-01-11T10:29:01;-1.40;18.60
1381;DHT22;684;48.342;10.096;2024-01-11T10:31:31;-1.30;18.60
1381;DHT22;684;48.342;10.096;2024-01-11T10:34:00;-1.30;18.70
1381;DHT22;684;48.342;10.096;2024-01-11T10:36:30;-1.20;19.30
1381;DHT22;684;48.342;10.096;2024-01-11T10:38:57;-1.20;18.60
1381;DHT22;684;48.342;10.096;2024-01-11T10:41:26;-1.20;18.40
1381;DHT22;684;48.342;10.096;2024-01-11T10:43:58;-1.20;18.20
1381;DHT22;684;48.342;10.096;2024-01-11T10:46:26;-1.10;18.30
1381;DHT22;684;48.342;10.096;2024-01-11T10:48:56;-1.10;18.50
1381;DHT22;684;48.342;10.096;2024-01-11T10:51:27;-1.00;18.30
1381;DHT22;684;48.342;10.096;2024-01-11T10:53:55;-0.90;18.40
1381;DHT22;684;48.342;10.096;2024-01-11T10:56:23;-0.80;18.40
1381;DHT22;684;48.342;10.096;2024-01-11T10:58:50;-0.80;18.40
1381;DHT22;684;48.342;10.096;2024-01-11T11:01:21;-0.70;18.40
1381;DHT22;684;48.342;10.096;2024-01-11T11:03:51;-0.60;18.20
1381;DHT22;684;48.342;10.096;2024-01-11T11:06:20;-0.60;18.10
1381;DHT22;684;48.342;10.096;2024-01-11T11:08:48;-0.50;18.00
1381;DHT22;684;48.342;10.096;2024-01-11T11:11:17;-0.40;17.70
1381;DHT22;684;48.342;10.096;2024-01-11T11:13:47;-0.40;17.60
1381;DHT22;684;48.342;10.096;2024-01-11T11:16:14;-0.40;17.30
1381;DHT22;684;48.342;10.096;2024-01-11T11:18:43;-0.40;17.30
1381;DHT22;684;48.342;10.096;2024-01-11T11:21:10;-0.30;17.40
1381;DHT22;684;48.342;10.096;2024-01-11T11:23:37;-0.20;17.30
1381;DHT22;684;48.342;10.096;2024-01-11T11:26:06;-0.20;17.20
1381;DHT22;684;48.342;10.096;2024-01-11T11:28:33;-0.10;17.20
1381;DHT22;684;48.342;10.096;2024-01-11T11:31:02;0.00;16.90
1381;DHT22;684;48.342;10.096;2024-01-11T11:33:30;0.00;16.70
1381;DHT22;684;48.342;10.096;2024-01-11T11:35:59;0.10;16.70
1381;DHT22;684;48.342;10.096;2024-01-11T11:38:27;0.10;16.70
1381;DHT22;684;48.342;10.096;2024-01-11T11:40:56;0.10;16.60
1381;DHT22;684;48.342;10.096;2024-01-11T11:43:23;0.10;16.40
1381;DHT22;684;48.342;10.096;2024-01-11T11:45:51;0.20;16.40
1381;DHT22;684;48.342;10.096;2024-01-11T11:48:49;0.20;16.20
1381;DHT22;684;48.342;10.096;2024-01-11T11:51:18;0.20;16.00
1381;DHT22;684;48.342;10.096;2024-01-11T11:53:46;0.20;16.00
1381;DHT22;684;48.342;10.096;2024-01-11T11:56:14;0.20;16.10
1381;DHT22;684;48.342;10.096;2024-01-11T11:58:43;0.20;16.20
1381;DHT22;684;48.342;10.096;2024-01-11T12:01:11;0.20;15.90
1381;DHT22;684;48.342;10.096;2024-01-11T12:03:41;0.30;15.70
1381;DHT22;684;48.342;10.096;2024-01-11T12:06:09;0.30;15.80
1381;DHT22;684;48.342;10.096;2024-01-11T12:08:38;0.30;15.90
1381;DHT22;684;48.342;10.096;2024-01-11T12:11:07;0.30;15.90
1381;DHT22;684;48.342;10.096;2024-01-11T12:13:35;0.20;15.70
1381;DHT22;684;48.342;10.096;2024-01-11T12:16:02;0.20;15.90
1381;DHT22;684;48.342;10.096;2024-01-11T12:18:29;0.10;15.80
1381;DHT22;684;48.342;10.096;2024-01-11T12:20:56;0.10;15.80
1381;DHT22;684;48.342;10.096;2024-01-11T12:23:23;0.10;16.10
1381;DHT22;684;48.342;10.096;2024-01-11T12:25:52;0.20;16.10
1381;DHT22;684;48.342;10.096;2024-01-11T12:28:18;0.20;16.10
1381;DHT22;684;48.342;10.096;2024-01-11T12:30:45;0.20;16.00
1381;DHT22;684;48.342;10.096;2024-01-11T12:33:13;0.20;16.00
1381;DHT22;684;48.342;10.096;2024-01-11T12:35:40;0.20;16.00
1381;DHT22;684;48.342;10.096;2024-01-11T12:38:07;0.30;15.90
1381;DHT22;684;48.342;10.096;2024-01-11T12:40:35;0.30;15.70
1381;DHT22;684;48.342;10.096;2024-01-11T12:43:05;0.40;15.60
1381;DHT22;684;48.342;10.096;2024-01-11T12:45:33;0.40;15.90
1381;DHT22;684;48.342;10.096;2024-01-11T12:48:01;0.50;15.90
1381;DHT22;684;48.342;10.096;2024-01-11T12:50:30;0.50;15.70
1381;DHT22;684;48.342;10.096;2024-01-11T12:53:08;0.50;15.70
1381;DHT22;684;48.342;10.096;2024-01-11T12:55:35;0.50;15.70
1381;DHT22;684;48.342;10.096;2024-01-11T12:58:07;0.60;15.50
1381;DHT22;684;48.342;10.096;2024-01-11T13:00:35;0.60;15.50
1381;DHT22;684;48.342;10.096;2024-01-11T13:03:04;0.60;15.40
1381;DHT22;684;48.342;10.096;2024-01-11T13:05:31;0.60;15.50
1381;DHT22;684;48.342;10.096;2024-01-11T13:08:01;0.70;15.50
1381;DHT22;684;48.342;10.096;2024-01-11T13:10:29;0.70;15.50
1381;DHT22;684;48.342;10.096;2024-01-11T13:12:58;0.70;15.40
1381;DHT22;684;48.342;10.096;2024-01-11T13:15:26;0.70;15.40
1381;DHT22;684;48.342;10.096;2024-01-11T13:17:54;0.70;15.40
1381;DHT22;684;48.342;10.096;2024-01-11T13:20:21;0.70;15.40
1381;DHT22;684;48.342;10.096;2024-01-11T13:22:49;0.70;15.40
1381;DHT22;684;48.342;10.096;2024-01-11T13:25:16;0.70;15.40
1381;DHT22;684;48.342;10.096;2024-01-11T13:27:43;0.70;15.40
1381;DHT22;684;48.342;10.096;2024-01-11T13:30:10;0.70;15.40
1381;DHT22;684;48.342;10.096;2024-01-11T13:32:40;0.70;15.40
1381;DHT22;684;48.342;10.096;2024-01-11T13:35:07;0.70;15.60
1381;DHT22;684;48.342;10.096;2024-01-11T13:37:34;0.60;15.50
1381;DHT22;684;48.342;10.096;2024-01-11T13:40:01;0.60;15.50
1381;DHT22;684;48.342;10.096;2024-01-11T13:42:29;0.60;15.60
1381;DHT22;684;48.342;10.096;2024-01-11T13:44:56;0.60;15.60
1381;DHT22;684;48.342;10.096;2024-01-11T13:47:22;0.60;15.70
1381;DHT22;684;48.342;10.096;2024-01-11T13:49:51;0.50;15.80
1381;DHT22;684;48.342;10.096;2024-01-11T13:52:17;0.50;15.90
1381;DHT22;684;48.342;10.096;2024-01-11T13:54:44;0.50;16.00
1381;DHT22;684;48.342;10.096;2024-01-11T13:57:11;0.50;16.00
1381;DHT22;684;48.342;10.096;2024-01-11T13:59:38;0.50;16.00
1381;DHT22;684;48.342;10.096;2024-01-11T14:02:05;0.50;16.10
1381;DHT22;684;48.342;10.096;2024-01-11T14:04:32;0.50;16.00
1381;DHT22;684;48.342;10.096;2024-01-11T14:07:01;0.50;15.90
1381;DHT22;684;48.342;10.096;2024-01-11T14:09:29;0.50;16.00
1381;DHT22;684;48.342;10.096;2024-01-11T14:11:56;0.40;15.80
1381;DHT22;684;48.342;10.096;2024-01-11T14:14:22;0.20;15.80
1381;DHT22;684;48.342;10.096;2024-01-11T14:16:49;0.10;16.00
1381;DHT22;684;48.342;10.096;2024-01-11T14:19:17;-0.10;16.10
1381;DHT22;684;48.342;10.096;2024-01-11T14:21:44;-0.20;16.50
1381;DHT22;684;48.342;10.096;2024-01-11T14:24:12;-0.20;16.70
1381;DHT22;684;48.342;10.096;2024-01-11T14:26:39;-0.30;16.80
1381;DHT22;684;48.342;10.096;2024-01-11T14:29:06;-0.40;16.90
1381;DHT22;684;48.342;10.096;2024-01-11T14:31:33;-0.40;17.10
1381;DHT22;684;48.342;10.096;2024-01-11T14:34:00;-0.50;17.40
1381;DHT22;684;48.342;10.096;2024-01-11T14:36:27;-0.50;17.30
1381;DHT22;684;48.342;10.096;2024-01-11T14:38:54;-0.60;17.40
1381;DHT22;684;48.342;10.096;2024-01-11T14:41:22;-0.70;17.70
1381;DHT22;684;48.342;10.096;2024-01-11T14:43:49;-0.80;17.90
1381;DHT22;684;48.342;10.096;2024-01-11T14:46:15;-0.90;18.20
1381;DHT22;684;48.342;10.096;2024-01-11T14:48:42;-1.00;18.50
1381;DHT22;684;48.342;10.096;2024-01-11T14:51:10;-0.90;18.80
1381;DHT22;684;48.342;10.096;2024-01-11T14:53:37;-0.90;18.80
1381;DHT22;684;48.342;10.096;2024-01-11T14:56:04;-1.00;18.90
1381;DHT22;684;48.342;10.096;2024-01-11T14:58:32;-1.10;19.00
1381;DHT22;684;48.342;10.096;2024-01-11T15:00:59;-1.10;19.20
1381;DHT22;684;48.342;10.096;2024-01-11T15:03:26;-1.10;19.30
1381;DHT22;684;48.342;10.096;2024-01-11T15:05:53;-1.20;19.40
1381;DHT22;684;48.342;10.096;2024-01-11T15:08:20;-1.30;19.60
1381;DHT22;684;48.342;10.096;2024-01-11T15:10:47;-1.30;19.70
1381;DHT22;684;48.342;10.096;2024-01-11T15:13:14;-1.40;19.70
1381;DHT22;684;48.342;10.096;2024-01-11T15:15:43;-1.40;19.80
1381;DHT22;684;48.342;10.096;2024-01-11T15:18:10;-1.40;19.90
1381;DHT22;684;48.342;10.096;2024-01-11T15:20:37;-1.50;20.00
1381;DHT22;684;48.342;10.096;2024-01-11T15:23:03;-1.50;20.00
1381;DHT22;684;48.342;10.096;2024-01-11T15:25:30;-1.50;20.20
1381;DHT22;684;48.342;10.096;2024-01-11T15:27:57;-1.60;20.20
1381;DHT22;684;48.342;10.096;2024-01-11T15:30:24;-1.60;20.30
1381;DHT22;684;48.342;10.096;2024-01-11T15:32:53;-1.70;21.10
1381;DHT22;684;48.342;10.096;2024-01-11T15:35:20;-1.70;20.60
1381;DHT22;684;48.342;10.096;2024-01-11T15:37:47;-1.80;20.70
1381;DHT22;684;48.342;10.096;2024-01-11T15:40:14;-1.80;20.80
1381;DHT22;684;48.342;10.096;2024-01-11T15:42:40;-1.80;20.90
1381;DHT22;684;48.342;10.096;2024-01-11T15:45:08;-1.90;21.10
1381;DHT22;684;48.342;10.096;2024-01-11T15:47:36;-2.00;21.30
1381;DHT22;684;48.342;10.096;2024-01-11T15:50:06;-2.00;21.50
1381;DHT22;684;48.342;10.096;2024-01-11T15:52:36;-2.00;21.50
1381;DHT22;684;48.342;10.096;2024-01-11T15:55:03;-2.10;21.70
1381;DHT22;684;48.342;10.096;2024-01-11T15:57:31;-2.10;21.90
1381;DHT22;684;48.342;10.096;2024-01-11T15:59:58;-2.10;21.90
1381;DHT22;684;48.342;10.096;2024-01-11T16:02:25;-2.10;22.00
1381;DHT22;684;48.342;10.096;2024-01-11T16:04:51;-2.20;22.00
1381;DHT22;684;48.342;10.096;2024-01-11T16:07:20;-2.20;22.00